Time;durP1;ratioP1;P1;durP2;ratioP2;P2;SDS_P1;SDS_P2;PMS_P1;PMS_P2;Temp;Humidity;BMP_temperature;BMP_pressure;BME280_temperature;BME280_humidity;BME280_pressure;Samples;Min_cycle;Max_cycle;Signal;HPM_P1;HPM_P2
2023/11/25 00:00:24;;;;;;;2.40;0.95;;;12.40;99.90;;;;;;5032831;28;20014;-46
2023/11/25 00:02:50;;;;;;;3.83;0.90;;;12.40;99.90;;;;;;5032642;28;20053;-45
2023/11/25 00:05:16;;;;;;;2.90;1.08;;;12.40;99.90;;;;;;5033055;28;20060;-41
2023/11/25 00:07:42;;;;;;;2.70;0.98;;;12.40;99.90;;;;;;5033359;28;20049;-45
2023/11/25 00:10:08;;;;;;;1.92;0.90;;;12.40;99.90;;;;;;5032362;28;20509;-46
2023/11/25 00:12:36;;;;;;;2.25;0.88;;;12.40;99.90;;;;;;5033277;28;20045;-44
2023/11/25 00:15:03;;;;;;;3.03;1.08;;;12.40;99.90;;;;;;5033566;28;20451;-44
2023/11/25 00:17:29;;;;;;;2.40;0.90;;;12.40;99.90;;;;;;5034503;28;20112;-46
2023/11/25 00:19:58;;;;;;;2.88;1.00;;;12.40;99.90;;;;;;5032782;28;20072;-41
2023/11/25 00:22:26;;;;;;;3.30;0.88;;;12.40;99.90;;;;;;5033675;28;20022;-46
2023/11/25 00:24:52;;;;;;;2.70;1.08;;;12.30;99.90;;;;;;5032457;28;20030;-45
2023/11/25 00:27:18;;;;;;;2.67;0.70;;;12.40;99.90;;;;;;5032432;28;20108;-41
2023/11/25 00:29:44;;;;;;;2.20;0.77;;;12.40;99.90;;;;;;5032498;28;20048;-46
2023/11/25 00:32:10;;;;;;;2.65;0.90;;;12.40;99.90;;;;;;5033616;28;20017;-46
2023/11/25 00:34:36;;;;;;;3.05;0.93;;;12.30;99.90;;;;;;5032959;28;20099;-46
2023/11/25 00:37:02;;;;;;;2.35;0.85;;;12.30;99.90;;;;;;5033592;28;20041;-43
2023/11/25 00:39:29;;;;;;;2.70;0.90;;;12.30;99.90;;;;;;5032361;28;20037;-45
2023/11/25 00:41:55;;;;;;;1.63;0.80;;;12.30;99.90;;;;;;5032798;28;20021;-46
2023/11/25 00:44:21;;;;;;;2.05;0.90;;;12.40;99.90;;;;;;5032781;28;20033;-45
2023/11/25 00:46:47;;;;;;;2.15;1.00;;;12.40;99.90;;;;;;5031912;28;20112;-45
2023/11/25 00:49:14;;;;;;;3.42;0.80;;;12.40;99.90;;;;;;5032191;28;20442;-45
2023/11/25 00:51:41;;;;;;;2.83;0.95;;;12.40;99.90;;;;;;5032720;28;20160;-41
2023/11/25 00:54:08;;;;;;;1.30;0.80;;;12.30;99.90;;;;;;5032904;28;20057;-44
2023/11/25 00:56:34;;;;;;;1.75;0.85;;;12.30;99.90;;;;;;5033610;28;20028;-43
2023/11/25 00:58:59;;;;;;;2.28;0.70;;;12.30;99.90;;;;;;5031499;28;20029;-46
2023/11/25 01:01:25;;;;;;;2.92;0.85;;;12.40;99.90;;;;;;5032692;28;20105;-43
2023/11/25 01:03:51;;;;;;;1.73;0.85;;;12.40;99.90;;;;;;5031619;28;20030;-44
2023/11/25 01:06:17;;;;;;;1.77;0.82;;;12.50;99.90;;;;;;5033298;28;20430;-45
2023/11/25 01:08:42;;;;;;;1.48;0.60;;;12.50;99.90;;;;;;5032456;28;20017;-46
2023/11/25 01:11:08;;;;;;;1.45;0.60;;;12.50;99.90;;;;;;5031698;28;20471;-41
2023/11/25 01:13:33;;;;;;;1.52;0.73;;;12.60;99.90;;;;;;5032671;28;20084;-46
2023/11/25 01:16:00;;;;;;;1.63;0.80;;;12.60;99.90;;;;;;5031512;28;20033;-45
2023/11/25 01:18:26;;;;;;;1.58;0.60;;;12.70;99.90;;;;;;5032250;28;20032;-46
2023/11/25 01:20:55;;;;;;;1.48;0.60;;;12.70;99.90;;;;;;5032670;28;20107;-46
2023/11/25 01:23:25;;;;;;;1.90;0.80;;;12.70;99.90;;;;;;5031951;28;20143;-46
2023/11/25 01:25:51;;;;;;;2.20;0.80;;;12.70;99.90;;;;;;5032314;28;20017;-41
2023/11/25 01:28:16;;;;;;;1.42;0.63;;;12.80;99.90;;;;;;5031115;28;20022;-42
2023/11/25 01:30:42;;;;;;;4.63;1.00;;;12.80;99.90;;;;;;5031826;28;20021;-45
2023/11/25 01:33:09;;;;;;;2.17;0.70;;;12.80;99.90;;;;;;5031284;28;20022;-44
2023/11/25 01:35:35;;;;;;;1.80;0.70;;;12.80;99.90;;;;;;5031491;28;20025;-46
2023/11/25 01:38:01;;;;;;;1.73;0.82;;;12.80;99.90;;;;;;5031952;28;20021;-42
2023/11/25 01:40:26;;;;;;;2.47;0.75;;;12.80;99.90;;;;;;5034913;28;20045;-42
2023/11/25 01:42:58;;;;;;;1.23;0.70;;;12.80;99.90;;;;;;5036009;28;20045;-46
2023/11/25 01:45:25;;;;;;;2.88;0.60;;;12.80;99.90;;;;;;5036954;28;20025;-46
2023/11/25 01:47:54;;;;;;;1.17;0.70;;;12.80;99.90;;;;;;5035801;28;20073;-44
2023/11/25 01:50:20;;;;;;;1.90;0.80;;;12.80;99.90;;;;;;5035344;28;20018;-46
2023/11/25 01:52:48;;;;;;;1.80;0.80;;;12.80;99.90;;;;;;5035579;28;20474;-46
2023/11/25 01:55:15;;;;;;;2.42;0.65;;;12.80;99.90;;;;;;5035079;28;20072;-46
2023/11/25 01:57:42;;;;;;;2.05;0.75;;;12.80;99.90;;;;;;5035291;28;20049;-46
2023/11/25 02:00:09;;;;;;;3.42;0.57;;;12.80;99.80;;;;;;5035217;28;20063;-44
2023/11/25 02:02:35;;;;;;;3.25;0.63;;;12.80;99.90;;;;;;5035013;28;20374;-45
2023/11/25 02:05:02;;;;;;;2.70;0.70;;;12.80;99.80;;;;;;5034861;28;20108;-45
2023/11/25 02:07:28;;;;;;;2.28;0.88;;;12.80;99.80;;;;;;5035092;28;20117;-43
2023/11/25 02:09:55;;;;;;;2.00;0.80;;;12.70;99.80;;;;;;5034964;28;20100;-45
2023/11/25 02:12:21;;;;;;;1.55;0.80;;;12.80;99.80;;;;;;5035119;28;20109;-46
2023/11/25 02:14:47;;;;;;;1.75;0.70;;;12.70;99.80;;;;;;5034700;28;20104;-45
2023/11/25 02:17:14;;;;;;;1.88;0.80;;;12.70;99.80;;;;;;5034769;28;20032;-46
2023/11/25 02:19:42;;;;;;;1.95;0.73;;;12.70;99.80;;;;;;5034531;28;20029;-43
2023/11/25 02:22:10;;;;;;;1.55;0.90;;;12.70;99.80;;;;;;5035288;28;20026;-46
2023/11/25 02:24:37;;;;;;;1.75;1.00;;;12.70;99.80;;;;;;5035338;28;20391;-46
2023/11/25 02:27:04;;;;;;;1.40;0.68;;;12.70;99.80;;;;;;5034413;28;20049;-44
2023/11/25 02:29:35;;;;;;;2.38;1.00;;;12.70;99.80;;;;;;5034887;28;20077;-46
2023/11/25 02:32:04;;;;;;;1.70;0.75;;;12.70;99.80;;;;;;5034952;28;20374;-43
2023/11/25 02:34:30;;;;;;;2.90;0.70;;;12.70;99.80;;;;;;5034856;28;20018;-45
2023/11/25 02:36:58;;;;;;;2.10;0.90;;;12.70;99.80;;;;;;5034171;28;20033;-45
2023/11/25 02:39:25;;;;;;;2.63;0.93;;;12.70;99.80;;;;;;5034059;28;20422;-46
2023/11/25 02:41:52;;;;;;;2.30;0.90;;;12.60;99.80;;;;;;5035095;28;20026;-46
2023/11/25 02:44:19;;;;;;;2.40;1.02;;;12.60;99.70;;;;;;5035704;28;20018;-42
2023/11/25 02:46:46;;;;;;;3.08;0.90;;;12.60;99.80;;;;;;5035285;28;20021;-46
2023/11/25 02:49:15;;;;;;;2.90;0.60;;;12.60;99.70;;;;;;5035637;28;20028;-44
2023/11/25 02:51:51;;;;;;;1.95;0.93;;;12.60;99.80;;;;;;5033524;28;20025;-39
2023/11/25 02:54:19;;;;;;;1.60;0.80;;;12.60;99.80;;;;;;5035731;28;20415;-46
2023/11/25 02:56:45;;;;;;;2.80;0.98;;;12.60;99.80;;;;;;5034010;28;20104;-45
2023/11/25 02:59:12;;;;;;;2.05;0.90;;;12.60;99.80;;;;;;5035348;28;20021;-46
2023/11/25 03:01:42;;;;;;;1.20;0.80;;;12.60;99.80;;;;;;5035277;28;20105;-45
2023/11/25 03:04:11;;;;;;;2.10;0.80;;;12.60;99.80;;;;;;5035010;28;20026;-45
2023/11/25 03:06:37;;;;;;;2.30;0.90;;;12.60;99.80;;;;;;5035137;28;20029;-46
2023/11/25 03:09:06;;;;;;;2.05;0.80;;;12.50;99.80;;;;;;5035058;28;20029;-45
2023/11/25 03:11:31;;;;;;;1.58;0.60;;;12.50;99.80;;;;;;5034922;28;20045;-44
2023/11/25 03:13:57;;;;;;;1.80;0.70;;;12.50;99.80;;;;;;5034918;28;20403;-46
2023/11/25 03:16:24;;;;;;;1.80;0.90;;;12.50;99.80;;;;;;5035132;28;20521;-46
2023/11/25 03:18:51;;;;;;;2.13;0.52;;;12.50;99.80;;;;;;5034169;28;20037;-45
2023/11/25 03:21:20;;;;;;;3.55;0.88;;;12.50;99.80;;;;;;5034196;28;20116;-46
2023/11/25 03:23:46;;;;;;;1.90;0.70;;;12.50;99.80;;;;;;5036117;28;20049;-41
2023/11/25 03:26:13;;;;;;;3.15;1.00;;;12.50;99.80;;;;;;5034161;28;20068;-44
2023/11/25 03:28:38;;;;;;;1.40;0.80;;;12.50;99.80;;;;;;5033294;28;20056;-45
2023/11/25 03:31:04;;;;;;;2.30;0.80;;;12.50;99.80;;;;;;5034706;28;20471;-44
2023/11/25 03:33:34;;;;;;;1.20;0.60;;;12.50;99.80;;;;;;5034310;28;20029;-46
2023/11/25 03:36:00;;;;;;;2.80;0.82;;;12.50;99.80;;;;;;5035108;28;20017;-46
2023/11/25 03:38:26;;;;;;;1.73;0.68;;;12.40;99.80;;;;;;5034163;28;20033;-46
2023/11/25 03:40:52;;;;;;;2.28;0.75;;;12.40;99.80;;;;;;5034257;28;20112;-45
2023/11/25 03:43:21;;;;;;;1.88;0.65;;;12.40;99.80;;;;;;5033733;28;20028;-44
2023/11/25 03:45:47;;;;;;;1.17;0.60;;;12.40;99.80;;;;;;5033618;28;20017;-44
2023/11/25 03:48:14;;;;;;;3.17;0.70;;;12.40;99.80;;;;;;5034088;28;20029;-42
2023/11/25 03:50:39;;;;;;;3.25;0.82;;;12.40;99.80;;;;;;5034529;28;20403;-46
2023/11/25 03:53:05;;;;;;;2.28;0.80;;;12.40;99.80;;;;;;5034161;28;20025;-46
2023/11/25 03:55:31;;;;;;;2.55;0.80;;;12.40;99.80;;;;;;5033871;28;20104;-46
2023/11/25 03:57:56;;;;;;;2.63;0.60;;;12.40;99.80;;;;;;5032983;28;20484;-45
2023/11/25 04:00:22;;;;;;;1.67;0.65;;;12.30;99.70;;;;;;5032874;28;20021;-46
2023/11/25 04:02:48;;;;;;;2.47;0.75;;;12.30;99.70;;;;;;5033225;28;20484;-46
2023/11/25 04:05:16;;;;;;;2.72;0.75;;;12.30;99.70;;;;;;5032931;28;20051;-46
2023/11/25 04:07:41;;;;;;;2.03;0.75;;;12.30;99.70;;;;;;5034649;28;20021;-46
2023/11/25 04:10:12;;;;;;;2.70;0.70;;;12.30;99.70;;;;;;5032873;28;20032;-45
2023/11/25 04:12:42;;;;;;;3.53;1.02;;;12.40;99.80;;;;;;5032638;28;20624;-43
2023/11/25 04:15:12;;;;;;;3.55;0.88;;;12.30;99.70;;;;;;5032356;28;20025;-41
2023/11/25 04:17:39;;;;;;;1.00;0.60;;;12.30;99.80;;;;;;5032813;28;20108;-45
2023/11/25 04:20:13;;;;;;;1.50;0.60;;;12.30;99.80;;;;;;5033787;28;20064;-45
2023/11/25 04:22:48;;;;;;;1.60;0.60;;;12.30;99.70;;;;;;5033762;28;20160;-46
2023/11/25 04:25:14;;;;;;;1.33;0.57;;;12.30;99.70;;;;;;5034295;28;20022;-46
2023/11/25 04:27:48;;;;;;;1.25;0.57;;;12.30;99.70;;;;;;5033148;28;20097;-45
2023/11/25 04:30:17;;;;;;;2.15;0.75;;;12.30;99.70;;;;;;5033669;28;20031;-45
2023/11/25 04:32:46;;;;;;;1.77;0.70;;;12.30;99.70;;;;;;5032856;28;20029;-46
2023/11/25 04:35:15;;;;;;;1.77;0.52;;;12.30;99.70;;;;;;5034276;28;20033;-46
2023/11/25 04:37:44;;;;;;;2.05;0.68;;;12.30;99.70;;;;;;5033680;28;20035;-45
2023/11/25 04:40:13;;;;;;;1.35;0.77;;;12.30;99.90;;;;;;5032343;28;20119;-45
2023/11/25 04:42:42;;;;;;;2.60;0.95;;;12.30;99.70;;;;;;5032037;28;20029;-46
2023/11/25 04:45:16;;;;;;;1.23;0.50;;;12.30;99.70;;;;;;5031873;28;20028;-43
2023/11/25 04:47:47;;;;;;;1.03;0.50;;;12.20;99.70;;;;;;5031972;28;20032;-46
2023/11/25 04:50:13;;;;;;;1.80;0.65;;;12.20;99.70;;;;;;5032817;28;20047;-45
2023/11/25 04:52:40;;;;;;;3.58;0.82;;;12.20;99.70;;;;;;5032279;28;20021;-43
2023/11/25 04:55:07;;;;;;;2.47;0.73;;;12.20;99.70;;;;;;5031813;28;20033;-42
2023/11/25 04:57:32;;;;;;;2.13;0.68;;;12.20;99.70;;;;;;5031881;28;20056;-46
2023/11/25 04:59:58;;;;;;;1.42;0.77;;;12.20;99.70;;;;;;5032857;28;20495;-46
2023/11/25 05:02:24;;;;;;;2.03;0.80;;;12.20;99.70;;;;;;5033252;28;20021;-46
2023/11/25 05:04:50;;;;;;;3.35;0.63;;;12.20;99.70;;;;;;5031533;28;20031;-46
2023/11/25 05:07:16;;;;;;;1.60;0.70;;;12.20;99.70;;;;;;5031438;28;20030;-46
2023/11/25 05:09:43;;;;;;;1.85;0.50;;;12.20;99.70;;;;;;5031699;28;20025;-45
2023/11/25 05:12:09;;;;;;;2.33;0.80;;;12.20;99.70;;;;;;5031556;28;20026;-45
2023/11/25 05:14:35;;;;;;;1.30;0.50;;;12.20;99.70;;;;;;5032252;28;20360;-46
2023/11/25 05:17:00;;;;;;;2.08;0.80;;;12.10;99.70;;;;;;5031944;28;20477;-45
2023/11/25 05:19:26;;;;;;;1.83;0.70;;;12.20;99.70;;;;;;5033736;28;20056;-46
2023/11/25 05:21:52;;;;;;;2.35;0.80;;;12.20;99.70;;;;;;5032932;28;20033;-43
2023/11/25 05:24:19;;;;;;;1.17;0.57;;;12.20;99.70;;;;;;5033112;28;20029;-46
2023/11/25 05:26:45;;;;;;;1.67;0.68;;;12.10;99.70;;;;;;5033003;28;20024;-45
2023/11/25 05:29:11;;;;;;;1.65;0.65;;;12.10;99.70;;;;;;5032698;28;20021;-46
2023/11/25 05:31:36;;;;;;;2.33;0.80;;;12.10;99.70;;;;;;5032732;28;20034;-43
2023/11/25 05:34:05;;;;;;;1.85;0.98;;;12.10;99.70;;;;;;5032495;28;20045;-46
2023/11/25 05:36:34;;;;;;;3.83;1.00;;;12.10;99.70;;;;;;5031224;28;20034;-45
2023/11/25 05:39:00;;;;;;;2.58;0.80;;;12.10;99.70;;;;;;5030981;28;20033;-44
2023/11/25 05:41:28;;;;;;;2.88;1.02;;;12.10;99.70;;;;;;5032525;28;20391;-41
2023/11/25 05:43:54;;;;;;;2.75;0.60;;;12.10;99.70;;;;;;5031350;28;20116;-46
2023/11/25 05:46:23;;;;;;;1.23;0.68;;;12.10;99.70;;;;;;5031386;28;20026;-45
2023/11/25 05:48:53;;;;;;;1.90;0.75;;;12.10;99.70;;;;;;5032147;28;20360;-45
2023/11/25 05:51:19;;;;;;;2.75;1.00;;;12.10;99.70;;;;;;5032442;28;20026;-45
2023/11/25 05:53:45;;;;;;;1.67;0.73;;;12.10;99.70;;;;;;5031139;28;20064;-46
2023/11/25 05:56:11;;;;;;;1.98;0.60;;;12.10;99.70;;;;;;5031702;28;20122;-46
2023/11/25 05:58:36;;;;;;;1.10;0.60;;;12.10;99.70;;;;;;5031056;28;20108;-46
2023/11/25 06:01:04;;;;;;;1.27;0.50;;;12.10;99.70;;;;;;5032338;28;20102;-45
2023/11/25 06:03:29;;;;;;;1.92;0.70;;;12.10;99.70;;;;;;5031664;28;20034;-46
2023/11/25 06:05:55;;;;;;;1.13;0.50;;;12.10;99.70;;;;;;5030918;28;20079;-46
2023/11/25 06:08:21;;;;;;;2.47;0.73;;;12.10;99.70;;;;;;5030767;28;20116;-42
2023/11/25 06:10:49;;;;;;;1.98;0.57;;;12.00;99.60;;;;;;5031407;28;20018;-43
2023/11/25 06:13:17;;;;;;;2.58;0.88;;;12.10;99.70;;;;;;5030983;28;20112;-46
2023/11/25 06:15:43;;;;;;;1.17;0.43;;;12.00;99.60;;;;;;5031322;28;20498;-40
2023/11/25 06:18:09;;;;;;;1.63;0.50;;;12.10;99.70;;;;;;5030763;28;20057;-45
2023/11/25 06:20:34;;;;;;;2.38;0.50;;;12.10;99.70;;;;;;5030777;28;20097;-45
2023/11/25 06:23:03;;;;;;;1.38;0.55;;;12.00;99.60;;;;;;5031117;28;20113;-45
2023/11/25 06:25:29;;;;;;;1.63;0.70;;;12.10;99.70;;;;;;5031933;28;20026;-44
2023/11/25 06:27:54;;;;;;;1.42;0.70;;;12.00;99.60;;;;;;5035145;28;20356;-46
2023/11/25 06:30:22;;;;;;;1.17;0.70;;;12.10;99.70;;;;;;5035189;28;20022;-46
2023/11/25 06:32:48;;;;;;;1.10;0.47;;;12.10;99.70;;;;;;5035203;28;20144;-45
2023/11/25 06:35:13;;;;;;;2.22;0.77;;;12.00;99.60;;;;;;5035420;28;20499;-45
2023/11/25 06:37:40;;;;;;;1.77;0.68;;;12.00;99.70;;;;;;5034368;28;20025;-45
2023/11/25 06:40:07;;;;;;;2.03;0.70;;;12.00;99.70;;;;;;5035240;28;20144;-46
2023/11/25 06:42:35;;;;;;;1.50;0.60;;;12.00;99.70;;;;;;5035174;28;20475;-46
2023/11/25 06:45:02;;;;;;;1.27;0.70;;;12.10;99.70;;;;;;5034375;28;20541;-45
2023/11/25 06:47:27;;;;;;;1.80;0.60;;;12.10;99.70;;;;;;5036178;28;20083;-46
2023/11/25 06:49:54;;;;;;;2.25;0.90;;;12.00;99.70;;;;;;5035114;28;20029;-45
2023/11/25 06:52:19;;;;;;;1.27;0.52;;;12.10;99.70;;;;;;5035389;28;20495;-44
2023/11/25 06:54:45;;;;;;;1.80;0.60;;;12.10;99.70;;;;;;5035048;28;20040;-45
2023/11/25 06:57:10;;;;;;;2.17;0.60;;;12.10;99.60;;;;;;5033888;28;20067;-45
2023/11/25 06:59:36;;;;;;;1.48;0.70;;;12.20;99.60;;;;;;5033793;28;20030;-39
2023/11/25 07:02:03;;;;;;;1.73;0.70;;;12.20;99.50;;;;;;5034626;28;20033;-45
2023/11/25 07:04:30;;;;;;;1.23;0.43;;;12.20;99.50;;;;;;5034828;28;20030;-46
2023/11/25 07:06:56;;;;;;;1.58;0.50;;;12.30;99.50;;;;;;5034722;28;20040;-46
2023/11/25 07:09:21;;;;;;;2.72;0.75;;;12.30;99.40;;;;;;5035376;28;20467;-45
2023/11/25 07:11:51;;;;;;;1.70;0.60;;;12.30;99.30;;;;;;5034827;28;20040;-45
2023/11/25 07:14:18;;;;;;;1.85;0.60;;;12.40;99.30;;;;;;5033615;28;20029;-46
2023/11/25 07:16:45;;;;;;;0.93;0.50;;;12.40;99.30;;;;;;5033659;28;20536;-43
2023/11/25 07:19:11;;;;;;;1.33;0.60;;;12.40;99.20;;;;;;5033661;28;20036;-46
2023/11/25 07:21:36;;;;;;;1.60;0.80;;;12.50;99.20;;;;;;5033714;28;20398;-46
2023/11/25 07:24:03;;;;;;;0.88;0.55;;;12.50;99.10;;;;;;5033406;28;20033;-45
2023/11/25 07:26:29;;;;;;;2.15;0.80;;;12.50;99.10;;;;;;5035225;28;20025;-46
2023/11/25 07:28:54;;;;;;;1.55;0.70;;;12.60;99.00;;;;;;5035764;28;20382;-46
2023/11/25 07:31:24;;;;;;;1.42;0.90;;;12.60;99.00;;;;;;5033391;28;20052;-46
2023/11/25 07:33:51;;;;;;;1.52;0.50;;;12.60;98.90;;;;;;5033347;28;20029;-45
2023/11/25 07:36:17;;;;;;;2.13;0.70;;;12.60;98.90;;;;;;5033215;28;20072;-46
2023/11/25 07:38:42;;;;;;;3.33;0.90;;;12.60;98.80;;;;;;5032361;28;20033;-46
2023/11/25 07:41:15;;;;;;;3.58;0.75;;;12.70;98.80;;;;;;5033155;28;20030;-46
2023/11/25 07:43:41;;;;;;;2.83;1.23;;;12.70;98.80;;;;;;5033190;28;20101;-46
2023/11/25 07:46:09;;;;;;;1.15;0.70;;;12.70;98.80;;;;;;5034111;28;20104;-45
2023/11/25 07:48:36;;;;;;;1.45;0.82;;;12.70;99.10;;;;;;5033929;28;20040;-45
2023/11/25 07:51:02;;;;;;;1.58;0.77;;;12.70;98.70;;;;;;5033945;28;20025;-45
2023/11/25 07:53:28;;;;;;;1.80;1.05;;;12.80;98.70;;;;;;5034211;28;20152;-40
2023/11/25 07:55:54;;;;;;;1.83;0.95;;;12.80;98.90;;;;;;5033739;28;20086;-46
2023/11/25 07:58:22;;;;;;;2.55;1.15;;;12.80;98.70;;;;;;5034025;28;20096;-45
2023/11/25 08:00:49;;;;;;;2.83;1.40;;;12.80;98.70;;;;;;5034308;28;20464;-45
2023/11/25 08:03:15;;;;;;;2.60;0.82;;;12.80;98.60;;;;;;5033478;28;20075;-46
2023/11/25 08:05:42;;;;;;;1.40;0.80;;;12.90;98.70;;;;;;5033407;28;20025;-45
2023/11/25 08:08:08;;;;;;;2.28;1.10;;;12.90;98.60;;;;;;5033947;28;20028;-43
2023/11/25 08:10:34;;;;;;;1.45;0.82;;;12.90;98.60;;;;;;5033949;28;20026;-46
2023/11/25 08:13:03;;;;;;;2.88;0.88;;;13.00;98.60;;;;;;5032704;28;20022;-40
2023/11/25 08:15:29;;;;;;;2.40;0.95;;;13.00;98.50;;;;;;5032507;28;20072;-43
2023/11/25 08:17:56;;;;;;;1.60;0.75;;;13.00;98.50;;;;;;5032696;28;20029;-45
2023/11/25 08:20:22;;;;;;;1.92;0.82;;;13.10;98.50;;;;;;5033853;28;20040;-43
2023/11/25 08:22:48;;;;;;;3.10;0.95;;;13.10;98.40;;;;;;5034086;28;20029;-46
2023/11/25 08:25:13;;;;;;;1.83;0.90;;;13.20;98.70;;;;;;5033064;28;20064;-45
2023/11/25 08:27:39;;;;;;;3.30;0.95;;;13.20;98.30;;;;;;5033140;28;20061;-45
2023/11/25 08:30:09;;;;;;;1.60;0.90;;;13.30;98.30;;;;;;5032654;28;20101;-42
2023/11/25 08:32:45;;;;;;;1.80;1.10;;;13.30;98.20;;;;;;5032969;28;20060;-44
2023/11/25 08:35:11;;;;;;;3.30;0.93;;;13.40;98.20;;;;;;5033265;28;20507;-43
2023/11/25 08:37:38;;;;;;;2.22;1.02;;;13.40;98.20;;;;;;5033563;28;20044;-45
2023/11/25 08:40:16;;;;;;;1.77;1.10;;;13.50;98.10;;;;;;5033450;28;20029;-45
2023/11/25 08:42:44;;;;;;;1.98;1.02;;;13.60;98.10;;;;;;5033040;28;20071;-46
2023/11/25 08:45:09;;;;;;;2.17;0.93;;;13.60;98.10;;;;;;5032891;28;20053;-45
2023/11/25 08:47:38;;;;;;;1.73;1.00;;;13.70;98.00;;;;;;5032020;28;20308;-42
2023/11/25 08:50:07;;;;;;;1.98;1.20;;;13.70;97.90;;;;;;5031017;28;20025;-45
2023/11/25 08:52:35;;;;;;;2.40;1.20;;;13.80;97.90;;;;;;5034160;28;20029;-46
2023/11/25 08:55:01;;;;;;;2.63;0.85;;;13.80;97.90;;;;;;5032591;28;20495;-45
2023/11/25 08:57:27;;;;;;;1.85;1.15;;;13.90;97.80;;;;;;5032184;28;20033;-45
2023/11/25 08:59:53;;;;;;;1.85;0.90;;;14.00;97.80;;;;;;5032106;28;20030;-46
2023/11/25 09:02:22;;;;;;;1.83;0.98;;;14.10;97.70;;;;;;5032523;28;20036;-46
2023/11/25 09:04:48;;;;;;;1.85;1.10;;;14.20;97.70;;;;;;5033349;28;20111;-46
2023/11/25 09:07:14;;;;;;;1.35;1.00;;;14.30;97.60;;;;;;5032909;28;20026;-45
2023/11/25 09:09:45;;;;;;;1.95;1.20;;;14.30;97.50;;;;;;5031491;28;20067;-45
2023/11/25 09:12:11;;;;;;;1.73;1.00;;;14.40;97.40;;;;;;5032192;28;20021;-46
2023/11/25 09:14:38;;;;;;;3.60;1.20;;;14.50;97.40;;;;;;5033579;28;20022;-45
2023/11/25 09:17:05;;;;;;;2.65;1.40;;;14.60;97.30;;;;;;5032017;28;20499;-45
2023/11/25 09:19:31;;;;;;;2.00;1.00;;;14.60;97.20;;;;;;5031405;28;20028;-46
2023/11/25 09:21:56;;;;;;;1.88;0.98;;;14.70;97.20;;;;;;5033026;28;20021;-44
2023/11/25 09:24:22;;;;;;;7.22;1.23;;;14.80;97.10;;;;;;5032187;28;20462;-46
2023/11/25 09:26:48;;;;;;;4.53;1.40;;;14.80;96.70;;;;;;5032442;28;20638;-46
2023/11/25 09:29:14;;;;;;;8.75;1.58;;;14.90;95.40;;;;;;5033555;28;20084;-46
2023/11/25 09:31:40;;;;;;;4.78;1.52;;;14.90;94.50;;;;;;5031873;28;20052;-41
2023/11/25 09:34:05;;;;;;;7.15;1.75;;;14.80;94.30;;;;;;5031235;28;20746;-41
2023/11/25 09:36:31;;;;;;;5.97;1.40;;;14.80;94.30;;;;;;5031632;28;20033;-46
2023/11/25 09:38:56;;;;;;;7.22;1.63;;;14.80;94.30;;;;;;5030949;28;20041;-45
2023/11/25 09:41:22;;;;;;;7.43;1.52;;;14.90;93.60;;;;;;5031250;28;20037;-46
2023/11/25 09:43:48;;;;;;;6.15;1.92;;;14.90;93.30;;;;;;5031596;28;20025;-45
2023/11/25 09:46:16;;;;;;;6.45;1.55;;;14.90;93.30;;;;;;5032138;28;20033;-46
2023/11/25 09:48:42;;;;;;;5.22;2.05;;;14.90;93.40;;;;;;5031376;28;20574;-46
2023/11/25 09:51:13;;;;;;;5.35;1.40;;;14.90;93.50;;;;;;5031584;28;20025;-45
2023/11/25 09:53:42;;;;;;;7.50;1.75;;;14.90;93.60;;;;;;5032382;28;20494;-45
2023/11/25 09:56:11;;;;;;;6.03;1.40;;;15.00;93.70;;;;;;5031698;28;20029;-42
2023/11/25 09:58:37;;;;;;;5.20;1.48;;;15.00;93.80;;;;;;5031451;28;20514;-43
2023/11/25 10:01:05;;;;;;;6.55;2.00;;;15.10;93.80;;;;;;5033303;28;20065;-45
2023/11/25 10:03:37;;;;;;;6.90;1.75;;;15.10;93.90;;;;;;5036167;28;20583;-46
2023/11/25 10:06:03;;;;;;;5.88;1.70;;;15.20;93.90;;;;;;5036513;28;20025;-45
2023/11/25 10:08:29;;;;;;;7.32;1.55;;;15.30;94.00;;;;;;5035586;28;20442;-46
2023/11/25 10:11:00;;;;;;;3.95;1.20;;;15.30;94.00;;;;;;5035999;28;20085;-45
2023/11/25 10:13:30;;;;;;;8.32;1.55;;;15.40;94.00;;;;;;5036940;28;20055;-46
2023/11/25 10:15:56;;;;;;;4.10;1.30;;;15.50;94.10;;;;;;5036191;28;20529;-46
2023/11/25 10:18:22;;;;;;;4.15;1.40;;;15.50;94.10;;;;;;5035178;28;20041;-46
2023/11/25 10:20:51;;;;;;;9.05;1.67;;;15.50;94.10;;;;;;5035772;28;20028;-46
2023/11/25 10:23:26;;;;;;;4.28;1.50;;;15.60;94.00;;;;;;5036282;28;20014;-45
2023/11/25 10:25:52;;;;;;;4.55;1.48;;;15.70;94.00;;;;;;5037606;28;20030;-45
2023/11/25 10:28:25;;;;;;;5.18;1.55;;;15.70;94.00;;;;;;5034495;28;20036;-45
2023/11/25 10:30:55;;;;;;;3.90;1.40;;;15.70;93.90;;;;;;5035114;28;20052;-41
2023/11/25 10:33:22;;;;;;;5.78;1.50;;;15.80;93.90;;;;;;5036092;28;20018;-46
2023/11/25 10:35:48;;;;;;;5.30;1.50;;;15.80;94.20;;;;;;5035247;28;20029;-45
2023/11/25 10:38:16;;;;;;;5.55;1.30;;;15.90;93.80;;;;;;5035238;28;20039;-46
2023/11/25 10:40:42;;;;;;;4.03;1.50;;;15.90;93.70;;;;;;5034457;28;20032;-46
2023/11/25 10:43:08;;;;;;;4.15;1.42;;;16.00;93.60;;;;;;5034866;28;20033;-46
2023/11/25 10:45:34;;;;;;;3.92;1.33;;;16.00;93.60;;;;;;5035061;28;20021;-42
2023/11/25 10:48:02;;;;;;;3.60;0.90;;;16.00;93.50;;;;;;5035681;28;20029;-45
2023/11/25 10:50:30;;;;;;;5.50;1.45;;;16.10;93.50;;;;;;5034363;28;20025;-45
2023/11/25 10:52:59;;;;;;;5.95;1.65;;;16.10;93.40;;;;;;5034127;28;20026;-44
2023/11/25 10:55:27;;;;;;;3.65;1.27;;;16.10;93.40;;;;;;5034227;28;20025;-45
2023/11/25 10:57:57;;;;;;;3.35;1.20;;;16.20;93.40;;;;;;5035136;28;20025;-44
2023/11/25 11:00:22;;;;;;;3.00;1.13;;;16.30;93.40;;;;;;5035209;28;20021;-47
2023/11/25 11:02:50;;;;;;;6.75;1.60;;;16.20;93.40;;;;;;5034267;28;20514;-47
2023/11/25 11:05:27;;;;;;;6.82;1.60;;;16.30;92.80;;;;;;5033778;28;20513;-47
2023/11/25 11:08:01;;;;;;;6.45;1.60;;;16.30;92.60;;;;;;5035047;28;20029;-47
2023/11/25 11:10:47;;;;;;;4.88;1.60;;;16.30;92.20;;;;;;5033933;28;20493;-46
2023/11/25 11:13:14;;;;;;;5.97;1.45;;;16.40;92.20;;;;;;5034213;28;20495;-46
2023/11/25 11:15:42;;;;;;;5.47;1.45;;;16.40;92.30;;;;;;5033757;28;20419;-47
2023/11/25 11:18:27;;;;;;;5.20;1.50;;;16.40;92.30;;;;;;5033856;28;20594;-46
2023/11/25 11:20:55;;;;;;;7.47;1.60;;;16.50;92.30;;;;;;5034099;28;20480;-46
2023/11/25 11:23:22;;;;;;;4.28;1.42;;;16.50;92.30;;;;;;5033563;28;20108;-46
2023/11/25 11:26:16;;;;;;;5.25;1.60;;;16.50;92.30;;;;;;5033743;28;20484;-47
2023/11/25 11:28:51;;;;;;;4.95;1.67;;;16.60;92.30;;;;;;5034076;28;20115;-46
2023/11/25 11:31:57;;;;;;;3.70;1.20;;;16.60;92.30;;;;;;5033617;28;20024;-46
2023/11/25 11:34:33;;;;;;;7.63;1.40;;;16.60;92.30;;;;;;5023371;28;20060;-46
2023/11/25 11:37:00;;;;;;;5.38;1.70;;;16.60;92.30;;;;;;5034471;28;20032;-45
2023/11/25 11:39:33;;;;;;;4.15;1.15;;;16.70;92.30;;;;;;5033965;28;20514;-48
2023/11/25 11:42:22;;;;;;;6.30;1.73;;;16.70;92.30;;;;;;5034264;28;20479;-47
2023/11/25 11:45:09;;;;;;;4.30;1.35;;;16.70;92.30;;;;;;5034031;28;20395;-46
2023/11/25 11:47:34;;;;;;;3.10;1.20;;;16.70;92.30;;;;;;5033107;28;20021;-46
2023/11/25 11:50:01;;;;;;;4.95;1.40;;;16.70;92.30;;;;;;5032886;28;20131;-47
2023/11/25 11:52:26;;;;;;;3.00;1.30;;;16.70;92.30;;;;;;5033924;28;20053;-46
2023/11/25 11:54:52;;;;;;;5.15;1.15;;;16.70;92.30;;;;;;5034287;28;20428;-46
2023/11/25 11:57:18;;;;;;;3.97;1.20;;;16.70;92.20;;;;;;5033331;28;20022;-47
2023/11/25 11:59:57;;;;;;;3.65;1.33;;;16.70;92.20;;;;;;5034395;28;20357;-47
2023/11/25 12:02:23;;;;;;;4.05;1.20;;;16.80;92.20;;;;;;5032841;28;20545;-46
2023/11/25 12:04:49;;;;;;;2.65;1.02;;;16.70;92.20;;;;;;5034059;28;20033;-46
2023/11/25 12:07:15;;;;;;;4.78;1.25;;;16.70;92.20;;;;;;5032991;28;20026;-47
2023/11/25 12:09:41;;;;;;;4.53;1.17;;;16.80;92.20;;;;;;5032891;28;20017;-46
2023/11/25 12:12:06;;;;;;;4.22;1.15;;;16.80;92.20;;;;;;5033924;28;20091;-47
2023/11/25 12:14:32;;;;;;;3.75;1.27;;;16.80;92.20;;;;;;5032834;28;20029;-47
2023/11/25 12:16:57;;;;;;;2.10;1.00;;;16.80;92.50;;;;;;5032465;28;20029;-45
2023/11/25 12:19:24;;;;;;;2.67;1.20;;;16.80;92.60;;;;;;5032566;28;20033;-46
2023/11/25 12:21:51;;;;;;;2.17;0.88;;;16.80;92.20;;;;;;5033279;28;20026;-47
2023/11/25 12:24:18;;;;;;;3.17;1.20;;;16.80;92.20;;;;;;5033772;28;20490;-47
2023/11/25 12:26:50;;;;;;;2.95;1.30;;;16.80;92.20;;;;;;5033390;28;20018;-47
2023/11/25 12:29:16;;;;;;;2.90;1.10;;;16.80;92.20;;;;;;5033074;28;20029;-46
2023/11/25 12:31:43;;;;;;;2.17;1.20;;;16.80;92.20;;;;;;5033030;28;20028;-46
2023/11/25 12:34:09;;;;;;;3.65;1.25;;;16.70;92.20;;;;;;5032269;28;20037;-46
2023/11/25 12:36:35;;;;;;;3.28;1.20;;;16.80;92.20;;;;;;5033311;28;20025;-46
2023/11/25 12:39:03;;;;;;;3.60;1.45;;;16.70;92.20;;;;;;5031885;28;20033;-45
2023/11/25 12:41:29;;;;;;;2.50;1.20;;;16.70;92.20;;;;;;5032148;28;20029;-45
2023/11/25 12:44:06;;;;;;;2.75;1.08;;;16.80;92.30;;;;;;5032308;28;20502;-48
2023/11/25 12:46:31;;;;;;;2.55;1.02;;;16.80;92.30;;;;;;5032898;28;20021;-46
2023/11/25 12:48:59;;;;;;;2.47;1.05;;;16.70;92.30;;;;;;5032771;28;20376;-47